createdAt,value
2022-07-29T00:02:25.182Z,16.95
2022-07-29T00:04:51.561Z,16.91
2022-07-29T00:07:17.916Z,16.87
2022-07-29T00:09:51.696Z,16.78
2022-07-29T00:12:26.561Z,16.80
2022-07-29T00:14:57.312Z,16.77
2022-07-29T00:17:24.883Z,16.84
2022-07-29T00:19:51.379Z,16.88
2022-07-29T00:22:17.777Z,16.83
2022-07-29T00:24:44.130Z,16.77
2022-07-29T00:27:10.545Z,16.80
2022-07-29T00:29:36.939Z,16.77
2022-07-29T00:32:03.873Z,16.66
2022-07-29T00:34:30.808Z,16.70
2022-07-29T00:36:57.862Z,16.75
2022-07-29T00:39:24.386Z,16.64
2022-07-29T00:41:51.279Z,16.53
2022-07-29T00:44:17.752Z,16.55
2022-07-29T00:46:44.363Z,16.56
2022-07-29T00:49:10.924Z,16.61
2022-07-29T00:51:38.214Z,16.61
2022-07-29T00:54:06.005Z,16.56
2022-07-29T00:56:33.550Z,16.52
2022-07-29T00:59:00.783Z,16.54
2022-07-29T01:01:28.057Z,16.44
2022-07-29T01:03:54.531Z,16.43
2022-07-29T01:06:21.229Z,16.62
2022-07-29T01:08:49.015Z,16.69
2022-07-29T01:11:16.898Z,16.60
2022-07-29T01:13:45.258Z,16.62
2022-07-29T01:16:18.963Z,16.66
2022-07-29T01:18:48.078Z,16.60
2022-07-29T01:21:49.529Z,16.58
2022-07-29T01:24:25.088Z,16.46
2022-07-29T01:27:19.465Z,16.34
2022-07-29T01:29:54.936Z,16.20
2022-07-29T01:32:28.833Z,16.06
2022-07-29T01:35:05.312Z,16.00
2022-07-29T01:38:02.104Z,15.96
2022-07-29T01:40:35.294Z,16.09
2022-07-29T01:43:10.142Z,16.14
2022-07-29T01:45:59.776Z,15.97
2022-07-29T01:48:39.879Z,16.03
2022-07-29T01:51:13.747Z,16.07
2022-07-29T01:53:48.688Z,15.97
2022-07-29T01:56:17.806Z,15.93
2022-07-29T01:58:46.375Z,15.92
2022-07-29T02:01:14.304Z,15.97
2022-07-29T02:03:45.658Z,15.93
2022-07-29T02:06:13.335Z,16.00
2022-07-29T02:08:40.544Z,16.18
2022-07-29T02:11:09.211Z,16.19
2022-07-29T02:13:37.758Z,16.23
2022-07-29T02:16:07.511Z,16.26
2022-07-29T02:18:36.767Z,16.52
2022-07-29T02:21:04.304Z,16.60
2022-07-29T02:23:31.952Z,16.50
2022-07-29T02:26:20.244Z,16.41
2022-07-29T02:28:48.200Z,16.27
2022-07-29T02:31:15.346Z,16.09
2022-07-29T02:33:42.708Z,16.06
2022-07-29T02:36:09.827Z,16.15
2022-07-29T02:38:37.071Z,16.07
2022-07-29T02:41:08.734Z,16.04
2022-07-29T02:43:36.609Z,15.98
2022-07-29T02:46:06.695Z,15.89
2022-07-29T02:48:59.189Z,15.68
2022-07-29T02:51:44.006Z,15.41
2022-07-29T02:54:15.573Z,15.45
2022-07-29T02:56:45.191Z,15.46
2022-07-29T02:59:14.875Z,15.80
2022-07-29T03:01:43.752Z,15.95
2022-07-29T03:04:12.550Z,15.82
2022-07-29T03:06:41.149Z,15.71
2022-07-29T03:09:12.966Z,15.85
2022-07-29T03:11:46.275Z,15.59
2022-07-29T03:14:18.458Z,15.65
2022-07-29T03:16:45.859Z,15.49
2022-07-29T03:19:12.349Z,15.56
2022-07-29T03:21:38.717Z,15.65
2022-07-29T03:24:10.098Z,15.30
2022-07-29T03:26:37.036Z,15.16
2022-07-29T03:29:03.383Z,15.02
2022-07-29T03:31:29.808Z,15.14
2022-07-29T03:33:56.238Z,15.38
2022-07-29T03:36:22.562Z,15.21
2022-07-29T03:38:50.031Z,14.94
2022-07-29T03:41:18.120Z,14.71
2022-07-29T03:43:50.672Z,14.68
2022-07-29T03:46:18.684Z,14.65
2022-07-29T03:48:51.490Z,14.90
2022-07-29T03:51:17.946Z,15.23
2022-07-29T03:53:45.382Z,15.35
2022-07-29T03:56:17.770Z,15.47
2022-07-29T03:58:45.208Z,15.57
2022-07-29T04:01:12.631Z,15.58
2022-07-29T04:03:40.079Z,15.45
2022-07-29T04:06:07.939Z,15.23
2022-07-29T04:08:35.397Z,15.31
2022-07-29T04:11:02.603Z,15.37
2022-07-29T04:13:29.339Z,15.58
2022-07-29T04:15:55.995Z,15.74
2022-07-29T04:18:22.372Z,15.78
2022-07-29T04:20:48.778Z,15.91
2022-07-29T04:23:15.212Z,15.92
2022-07-29T04:25:42.167Z,15.94
2022-07-29T04:28:10.232Z,15.80
2022-07-29T04:30:37.849Z,15.90
2022-07-29T04:33:06.843Z,15.79
2022-07-29T04:35:45.814Z,15.61
2022-07-29T04:38:18.956Z,15.66
2022-07-29T04:40:45.384Z,16.05
2022-07-29T04:43:14.263Z,16.02
2022-07-29T04:45:42.081Z,16.04
2022-07-29T04:48:08.504Z,15.95
2022-07-29T04:50:35.017Z,15.97
2022-07-29T04:53:01.384Z,16.02
2022-07-29T04:55:27.728Z,16.03
2022-07-29T04:57:54.071Z,16.01
2022-07-29T05:00:20.451Z,16.12
2022-07-29T05:02:47.052Z,15.95
2022-07-29T05:05:13.463Z,15.97
2022-07-29T05:07:41.755Z,16.27
2022-07-29T05:10:09.182Z,16.32
2022-07-29T05:12:35.667Z,16.32
2022-07-29T05:15:02.071Z,16.24
2022-07-29T05:17:28.544Z,16.44
2022-07-29T05:19:54.915Z,16.66
2022-07-29T05:22:21.823Z,16.81
2022-07-29T05:24:48.191Z,17.05
2022-07-29T05:27:14.563Z,17.12
2022-07-29T05:29:43.187Z,17.25
2022-07-29T05:32:09.956Z,17.39
2022-07-29T05:34:36.346Z,17.45
2022-07-29T05:37:02.924Z,17.48
2022-07-29T05:39:49.289Z,17.58
2022-07-29T05:42:15.669Z,17.58
2022-07-29T05:44:42.120Z,17.77
2022-07-29T05:47:08.772Z,17.93
2022-07-29T05:49:35.430Z,17.97
2022-07-29T05:52:01.824Z,17.69
2022-07-29T05:54:28.191Z,17.81
2022-07-29T05:56:54.532Z,17.97
2022-07-29T05:59:20.937Z,18.41
2022-07-29T06:01:47.391Z,18.48
2022-07-29T06:04:14.105Z,18.12
2022-07-29T06:06:40.807Z,17.76
2022-07-29T06:09:12.190Z,18.45
2022-07-29T06:11:39.409Z,18.55
2022-07-29T06:14:05.780Z,18.43
2022-07-29T06:16:32.287Z,18.50
2022-07-29T06:18:58.735Z,18.58
2022-07-29T06:21:25.059Z,18.06
2022-07-29T06:23:51.454Z,18.14
2022-07-29T06:26:17.814Z,18.46
2022-07-29T06:28:44.247Z,18.62
2022-07-29T06:31:10.688Z,18.61
2022-07-29T06:33:37.055Z,18.62
2022-07-29T06:36:06.155Z,18.68
2022-07-29T06:38:40.371Z,18.85
2022-07-29T06:41:09.519Z,19.21
2022-07-29T06:43:45.619Z,19.79
2022-07-29T06:46:18.727Z,19.93
2022-07-29T06:48:46.145Z,19.92
2022-07-29T06:51:12.787Z,19.60
2022-07-29T06:53:39.775Z,19.32
2022-07-29T06:56:25.103Z,19.03
2022-07-29T06:58:51.532Z,19.49
2022-07-29T07:01:17.946Z,19.53
2022-07-29T07:03:44.383Z,19.79
2022-07-29T07:06:14.840Z,19.89
2022-07-29T07:08:41.582Z,20.11
2022-07-29T07:11:08.003Z,20.45
2022-07-29T07:13:34.344Z,19.86
2022-07-29T07:16:04.020Z,20.52
2022-07-29T07:18:30.821Z,20.40
2022-07-29T07:20:58.007Z,20.87
2022-07-29T07:23:24.438Z,20.94
2022-07-29T07:25:50.816Z,20.91
2022-07-29T07:28:17.172Z,20.86
2022-07-29T07:30:43.752Z,20.95
2022-07-29T07:33:10.216Z,20.73
2022-07-29T07:35:36.567Z,20.98
2022-07-29T07:38:02.933Z,21.19
2022-07-29T07:40:29.278Z,21.84
2022-07-29T07:42:55.651Z,22.37
2022-07-29T07:45:21.971Z,22.64
2022-07-29T07:47:48.402Z,22.47
2022-07-29T07:50:18.708Z,20.83
2022-07-29T07:52:54.246Z,21.39
2022-07-29T07:55:20.816Z,21.72
2022-07-29T07:57:47.398Z,22.05
2022-07-29T08:00:15.775Z,22.06
2022-07-29T08:02:42.299Z,21.96
2022-07-29T08:05:12.598Z,22.10
2022-07-29T08:07:39.758Z,22.44
2022-07-29T08:10:06.597Z,22.38
2022-07-29T08:12:33.022Z,22.55
2022-07-29T08:14:59.408Z,22.51
2022-07-29T08:17:25.754Z,22.17
2022-07-29T08:19:52.106Z,22.02
2022-07-29T08:22:18.523Z,22.05
2022-07-29T08:24:44.946Z,22.63
2022-07-29T08:27:33.489Z,23.19
2022-07-29T08:29:58.441Z,22.85
2022-07-29T08:32:43.765Z,22.18
2022-07-29T08:35:11.273Z,22.83
2022-07-29T08:37:37.752Z,23.07
2022-07-29T08:40:04.519Z,23.18
2022-07-29T08:42:31.413Z,23.27
2022-07-29T08:44:58.811Z,23.57
2022-07-29T08:47:26.541Z,23.94
2022-07-29T08:49:52.997Z,24.36
2022-07-29T08:52:20.977Z,23.85
2022-07-29T08:54:48.436Z,24.11
2022-07-29T08:57:15.083Z,23.80
2022-07-29T08:59:43.619Z,24.44
2022-07-29T09:02:22.495Z,24.81
2022-07-29T09:04:49.832Z,24.41
2022-07-29T09:07:17.949Z,23.34
2022-07-29T09:09:44.639Z,23.22
2022-07-29T09:12:11.610Z,23.70
2022-07-29T09:14:39.142Z,23.64
2022-07-29T09:17:06.063Z,23.65
2022-07-29T09:19:37.430Z,23.46
2022-07-29T09:22:07.074Z,23.07
2022-07-29T09:24:43.547Z,22.76
2022-07-29T09:27:22.255Z,23.32
2022-07-29T09:30:06.339Z,23.79
2022-07-29T09:32:34.305Z,24.00
2022-07-29T09:35:18.899Z,23.88
2022-07-29T09:37:45.755Z,23.87
2022-07-29T09:40:17.635Z,24.02
2022-07-29T09:42:45.115Z,24.58
2022-07-29T09:45:12.066Z,25.41
2022-07-29T09:47:48.558Z,26.08
2022-07-29T09:50:15.200Z,26.05
2022-07-29T09:52:50.603Z,25.51
2022-07-29T09:55:19.828Z,25.59
2022-07-29T09:57:47.684Z,26.14
2022-07-29T10:00:18.187Z,25.95
2022-07-29T10:02:47.058Z,26.00
2022-07-29T10:05:23.376Z,25.62
2022-07-29T10:07:57.178Z,25.39
2022-07-29T10:10:24.035Z,25.88
2022-07-29T10:12:56.915Z,26.03
2022-07-29T10:15:25.888Z,25.95
2022-07-29T10:17:53.563Z,26.01
2022-07-29T10:20:21.594Z,24.98
2022-07-29T10:22:53.950Z,24.38
2022-07-29T10:25:21.425Z,25.13
2022-07-29T10:27:48.903Z,25.04
2022-07-29T10:30:16.739Z,25.32
2022-07-29T10:33:04.777Z,25.81
2022-07-29T10:36:14.342Z,25.68
2022-07-29T10:39:03.247Z,25.81
2022-07-29T10:41:53.575Z,26.06
2022-07-29T10:44:23.026Z,25.86
2022-07-29T10:46:51.415Z,25.74
2022-07-29T10:49:20.095Z,26.28
2022-07-29T10:52:10.720Z,26.46
2022-07-29T10:54:37.686Z,26.53
2022-07-29T10:57:21.595Z,26.46
2022-07-29T11:00:01.408Z,25.75
2022-07-29T11:02:42.603Z,25.25
2022-07-29T11:05:14.736Z,25.78
2022-07-29T11:08:19.993Z,24.46
2022-07-29T11:10:51.555Z,25.50
2022-07-29T11:13:47.290Z,25.21
2022-07-29T11:16:16.623Z,24.99
2022-07-29T11:19:11.272Z,25.84
2022-07-29T11:22:00.316Z,25.48
2022-07-29T11:24:30.257Z,25.71
2022-07-29T11:27:10.981Z,26.17
2022-07-29T11:29:48.438Z,26.56
2022-07-29T11:35:36.734Z,26.79
2022-07-29T11:38:23.479Z,26.98
2022-07-29T11:41:08.370Z,25.97
2022-07-29T11:43:51.948Z,26.96
2022-07-29T11:46:47.843Z,27.53
2022-07-29T11:49:14.623Z,27.95
2022-07-29T11:54:57.182Z,27.12
2022-07-29T11:57:22.122Z,27.08
2022-07-29T11:59:48.633Z,26.48
2022-07-29T12:02:37.049Z,26.35
2022-07-29T12:05:01.899Z,26.18
2022-07-29T12:07:01.471Z,26.66
2022-07-29T12:07:38.250Z,26.18
2022-07-29T12:10:07.598Z,26.08
2022-07-29T12:12:38.110Z,26.09
2022-07-29T12:15:15.696Z,25.84
2022-07-29T12:17:42.333Z,25.97
2022-07-29T12:20:08.924Z,25.58
2022-07-29T12:22:40.791Z,26.62
2022-07-29T12:25:32.312Z,26.96
2022-07-29T12:28:01.133Z,27.74
2022-07-29T12:30:48.084Z,26.72
2022-07-29T12:33:17.401Z,26.27
2022-07-29T12:35:58.098Z,26.65
2022-07-29T12:38:30.479Z,27.08
2022-07-29T12:40:57.004Z,27.34
2022-07-29T12:43:25.529Z,27.29
2022-07-29T12:45:54.471Z,27.09
2022-07-29T12:48:41.400Z,26.53
2022-07-29T12:51:09.019Z,26.75
2022-07-29T12:53:36.185Z,26.37
2022-07-29T12:56:15.570Z,26.71
2022-07-29T12:58:51.389Z,26.40
2022-07-29T13:01:19.681Z,26.78
2022-07-29T13:03:57.186Z,26.65
2022-07-29T13:06:32.370Z,26.08
2022-07-29T13:09:06.413Z,25.62
2022-07-29T13:11:45.301Z,25.47
2022-07-29T13:14:35.724Z,25.59
2022-07-29T13:17:10.040Z,26.02
2022-07-29T13:19:45.101Z,26.17
2022-07-29T13:22:16.412Z,25.89
2022-07-29T13:24:48.498Z,25.39
2022-07-29T13:27:18.906Z,25.95
2022-07-29T13:29:45.614Z,25.06
2022-07-29T13:32:12.675Z,24.91
2022-07-29T13:34:38.994Z,24.52
2022-07-29T13:37:05.370Z,24.33
2022-07-29T13:39:31.840Z,24.96
2022-07-29T13:41:58.528Z,25.56
2022-07-29T13:44:26.712Z,25.82
2022-07-29T13:46:53.047Z,25.93
2022-07-29T13:49:19.413Z,26.24
2022-07-29T13:51:45.774Z,26.27
2022-07-29T13:54:12.141Z,25.28
2022-07-29T13:56:38.478Z,25.36
2022-07-29T13:59:04.875Z,25.81
2022-07-29T14:01:31.374Z,26.00
2022-07-29T14:03:57.805Z,25.78
2022-07-29T14:06:24.175Z,25.79
2022-07-29T14:08:50.516Z,25.59
2022-07-29T14:11:16.884Z,25.58
2022-07-29T14:13:43.223Z,25.38
2022-07-29T14:16:09.611Z,25.41
2022-07-29T14:18:35.943Z,25.22
2022-07-29T14:21:02.736Z,25.08
2022-07-29T14:23:29.094Z,25.21
2022-07-29T14:25:55.494Z,25.08
2022-07-29T14:28:22.397Z,25.14
2022-07-29T14:30:48.752Z,25.06
2022-07-29T14:33:15.111Z,24.93
2022-07-29T14:35:41.459Z,25.03
2022-07-29T14:38:07.940Z,25.05
2022-07-29T14:40:34.404Z,25.18
2022-07-29T14:43:00.740Z,25.30
2022-07-29T14:45:27.112Z,25.08
2022-07-29T14:47:57.268Z,24.96
2022-07-29T14:50:31.617Z,24.59
2022-07-29T14:52:58.503Z,24.10
2022-07-29T14:55:24.825Z,24.08
2022-07-29T14:57:51.158Z,23.83
2022-07-29T15:00:18.380Z,23.73
2022-07-29T15:03:02.407Z,23.67
2022-07-29T15:05:30.103Z,23.59
2022-07-29T15:07:56.572Z,23.27
2022-07-29T15:10:24.729Z,23.52
2022-07-29T15:12:51.103Z,23.42
2022-07-29T15:15:17.437Z,23.42
2022-07-29T15:17:43.770Z,23.38
2022-07-29T15:20:10.606Z,23.37
2022-07-29T15:22:36.929Z,23.30
2022-07-29T15:25:03.384Z,23.20
2022-07-29T15:27:29.776Z,23.02
2022-07-29T15:29:56.132Z,23.08
2022-07-29T15:32:22.455Z,22.99
2022-07-29T15:34:48.791Z,22.93
2022-07-29T15:37:15.132Z,22.85
2022-07-29T15:39:41.486Z,22.78
2022-07-29T15:42:07.868Z,22.69
2022-07-29T15:44:34.913Z,22.68
2022-07-29T15:47:01.917Z,22.60
2022-07-29T15:49:28.915Z,22.61
2022-07-29T15:52:13.100Z,22.47
2022-07-29T15:54:40.332Z,22.36
2022-07-29T15:57:07.511Z,21.97
2022-07-29T15:59:34.231Z,21.67
2022-07-29T16:02:01.701Z,21.44
2022-07-29T16:04:28.306Z,21.33
2022-07-29T16:06:55.271Z,21.21
2022-07-29T16:09:21.827Z,21.15
2022-07-29T16:11:48.283Z,21.26
2022-07-29T16:14:14.790Z,21.20
2022-07-29T16:16:41.234Z,21.21
2022-07-29T16:19:08.556Z,21.19
2022-07-29T16:21:35.409Z,21.09
2022-07-29T16:24:02.671Z,21.01
2022-07-29T16:26:29.121Z,21.02
2022-07-29T16:28:55.987Z,21.02
2022-07-29T16:31:23.057Z,21.06
2022-07-29T16:33:54.390Z,21.05
2022-07-29T16:36:22.883Z,21.03
2022-07-29T16:38:49.954Z,21.02
2022-07-29T16:41:16.512Z,21.10
2022-07-29T16:43:42.981Z,21.09
2022-07-29T16:46:14.034Z,21.08
2022-07-29T16:48:45.618Z,21.01
2022-07-29T16:51:14.363Z,21.06
2022-07-29T16:53:41.314Z,20.98
2022-07-29T16:56:08.489Z,21.06
2022-07-29T16:58:41.758Z,21.15
2022-07-29T17:01:10.126Z,21.08
2022-07-29T17:03:36.521Z,21.12
2022-07-29T17:06:02.905Z,21.12
2022-07-29T17:08:29.249Z,21.05
2022-07-29T17:10:55.569Z,21.08
2022-07-29T17:13:21.902Z,21.05
2022-07-29T17:15:48.335Z,20.95
2022-07-29T17:18:14.760Z,20.74
2022-07-29T17:20:42.123Z,20.54
2022-07-29T17:23:08.616Z,20.46
2022-07-29T17:25:35.068Z,20.41
2022-07-29T17:28:01.561Z,20.31
2022-07-29T17:30:28.733Z,20.09
2022-07-29T17:32:55.109Z,19.67
2022-07-29T17:35:21.443Z,19.19
2022-07-29T17:37:47.775Z,18.93
2022-07-29T17:40:14.096Z,18.87
2022-07-29T17:42:40.434Z,18.99
2022-07-29T17:45:07.432Z,19.08
2022-07-29T17:47:33.750Z,19.20
2022-07-29T17:50:00.162Z,19.31
2022-07-29T17:52:26.501Z,19.29
2022-07-29T17:54:52.818Z,19.31
2022-07-29T17:57:19.151Z,19.18
2022-07-29T17:59:45.497Z,19.17
2022-07-29T18:02:11.887Z,19.15
2022-07-29T18:04:38.461Z,19.30
2022-07-29T18:07:04.782Z,19.29
2022-07-29T18:09:31.134Z,19.10
2022-07-29T18:11:57.478Z,19.07
2022-07-29T18:14:23.822Z,19.17
2022-07-29T18:16:50.233Z,18.96
2022-07-29T18:19:16.598Z,18.72
2022-07-29T18:21:51.926Z,18.64
2022-07-29T18:24:21.202Z,18.69
2022-07-29T18:26:47.553Z,18.82
2022-07-29T18:29:13.908Z,18.98
2022-07-29T18:31:40.287Z,19.03
2022-07-29T18:34:06.682Z,18.96
2022-07-29T18:36:33.019Z,18.96
2022-07-29T18:38:59.369Z,19.06
2022-07-29T18:41:25.714Z,18.71
2022-07-29T18:43:52.040Z,18.54
2022-07-29T18:46:18.460Z,18.64
2022-07-29T18:48:44.859Z,18.41
2022-07-29T18:51:11.206Z,18.46
2022-07-29T18:53:37.661Z,18.49
2022-07-29T18:56:04.206Z,18.48
2022-07-29T18:58:30.558Z,18.49
2022-07-29T19:00:56.874Z,18.39
2022-07-29T19:03:23.201Z,18.30
2022-07-29T19:05:49.649Z,18.20
2022-07-29T19:08:15.985Z,18.14
2022-07-29T19:10:42.345Z,18.03
2022-07-29T19:13:08.803Z,18.01
2022-07-29T19:15:36.708Z,18.01
2022-07-29T19:18:03.231Z,17.79
2022-07-29T19:20:29.563Z,17.95
2022-07-29T19:22:55.944Z,17.80
2022-07-29T19:25:22.422Z,17.84
2022-07-29T19:27:48.752Z,17.99
2022-07-29T19:30:15.193Z,18.06
2022-07-29T19:32:41.762Z,17.65
2022-07-29T19:35:08.220Z,17.62
2022-07-29T19:37:34.555Z,17.67
2022-07-29T19:40:00.881Z,17.78
2022-07-29T19:42:27.197Z,17.66
2022-07-29T19:44:53.649Z,17.81
2022-07-29T19:47:19.965Z,17.89
2022-07-29T19:49:46.308Z,17.72
2022-07-29T19:52:12.635Z,17.67
2022-07-29T19:54:38.977Z,17.55
2022-07-29T19:57:05.341Z,17.32
2022-07-29T19:59:31.663Z,17.42
2022-07-29T20:01:58.048Z,17.58
2022-07-29T20:04:24.420Z,17.63
2022-07-29T20:06:50.778Z,17.70
2022-07-29T20:09:20.549Z,17.32
2022-07-29T20:11:47.225Z,17.33
2022-07-29T20:14:13.645Z,17.21
2022-07-29T20:16:39.974Z,17.12
2022-07-29T20:19:06.318Z,17.19
2022-07-29T20:21:32.655Z,17.14
2022-07-29T20:23:59.232Z,17.43
2022-07-29T20:26:25.556Z,17.53
2022-07-29T20:28:51.955Z,17.38
2022-07-29T20:31:18.332Z,17.39
2022-07-29T20:33:45.013Z,17.29
2022-07-29T20:36:11.420Z,17.12
2022-07-29T20:38:37.828Z,17.02
2022-07-29T20:41:04.379Z,16.91
2022-07-29T20:43:30.704Z,16.83
2022-07-29T20:46:03.033Z,16.86
2022-07-29T20:48:29.403Z,16.91
2022-07-29T20:50:55.807Z,16.78
2022-07-29T20:53:22.899Z,16.68
2022-07-29T20:55:49.342Z,16.70
2022-07-29T20:58:15.691Z,16.78
2022-07-29T21:00:42.022Z,16.78
2022-07-29T21:03:08.436Z,16.85
2022-07-29T21:05:36.818Z,16.80
2022-07-29T21:08:03.803Z,16.63
2022-07-29T21:10:30.155Z,16.70
2022-07-29T21:12:56.503Z,16.69
2022-07-29T21:15:22.914Z,16.72
2022-07-29T21:17:49.242Z,16.63
2022-07-29T21:20:17.247Z,16.63
2022-07-29T21:22:44.519Z,16.53
2022-07-29T21:25:11.695Z,16.60
2022-07-29T21:27:38.394Z,16.63
2022-07-29T21:30:06.896Z,16.80
2022-07-29T21:32:33.313Z,16.79
2022-07-29T21:34:59.744Z,16.73
2022-07-29T21:37:26.145Z,16.71
2022-07-29T21:39:52.480Z,16.85
2022-07-29T21:42:18.871Z,16.90
2022-07-29T21:44:45.337Z,16.88
2022-07-29T21:47:11.801Z,16.91
2022-07-29T21:49:38.282Z,16.91
2022-07-29T21:52:05.613Z,16.79
2022-07-29T21:54:34.314Z,16.71
2022-07-29T21:57:00.643Z,16.79
2022-07-29T21:59:27.418Z,16.86
2022-07-29T22:01:53.788Z,16.81
2022-07-29T22:04:20.516Z,16.89
2022-07-29T22:06:46.924Z,17.11
2022-07-29T22:09:13.319Z,17.10
2022-07-29T22:11:39.751Z,17.15
2022-07-29T22:14:06.089Z,17.28
2022-07-29T22:16:32.484Z,17.23
2022-07-29T22:18:58.880Z,17.12
2022-07-29T22:21:25.320Z,16.99
2022-07-29T22:23:51.650Z,16.68
2022-07-29T22:26:18.007Z,16.60
2022-07-29T22:28:44.338Z,16.93
2022-07-29T22:31:10.760Z,17.05
2022-07-29T22:33:37.202Z,16.85
2022-07-29T22:36:03.758Z,16.90
2022-07-29T22:38:30.163Z,16.82
2022-07-29T22:41:00.485Z,16.80
2022-07-29T22:43:27.765Z,16.73
2022-07-29T22:45:54.140Z,16.57
2022-07-29T22:48:20.522Z,16.58
2022-07-29T22:50:46.886Z,16.56
2022-07-29T22:53:13.250Z,16.45
2022-07-29T22:55:39.647Z,16.36
2022-07-29T22:58:06.057Z,16.26
2022-07-29T23:00:32.528Z,16.31
2022-07-29T23:02:58.910Z,16.24
2022-07-29T23:05:25.309Z,16.28
2022-07-29T23:07:51.700Z,16.37
2022-07-29T23:10:18.118Z,16.39
2022-07-29T23:12:44.454Z,16.24
2022-07-29T23:15:10.808Z,16.18
2022-07-29T23:17:37.181Z,16.12
2022-07-29T23:20:08.231Z,16.06
2022-07-29T23:22:36.284Z,16.07
2022-07-29T23:25:03.724Z,16.23
2022-07-29T23:27:30.121Z,16.17
2022-07-29T23:29:56.447Z,16.16
2022-07-29T23:32:22.798Z,16.14
2022-07-29T23:34:49.142Z,16.13
2022-07-29T23:37:15.470Z,16.20
2022-07-29T23:39:41.956Z,16.27
2022-07-29T23:42:09.383Z,16.22
2022-07-29T23:44:35.718Z,16.15
2022-07-29T23:47:02.600Z,16.05
2022-07-29T23:49:29.116Z,16.25
2022-07-29T23:51:55.491Z,16.28
2022-07-29T23:54:21.822Z,16.21
2022-07-29T23:56:48.166Z,16.12
2022-07-29T23:59:14.490Z,16.11
